Time;durP1;ratioP1;P1;durP2;ratioP2;P2;SDS_P1;SDS_P2;PMS_P1;PMS_P2;Temp;Humidity;BMP_temperature;BMP_pressure;BME280_temperature;BME280_humidity;BME280_pressure;Samples;Min_cycle;Max_cycle;Signal;HPM_P1;HPM_P2
2023/09/14 00:00:50;;;;;;;11.77;7.68;;;;;;;-141.50;100.00;63355.56;5032487;28;20506;-77
2023/09/14 00:03:17;;;;;;;13.60;8.20;;;;;;;-141.50;100.00;63355.56;5029062;28;20049;-77
2023/09/14 00:05:47;;;;;;;15.30;8.93;;;;;;;-141.50;100.00;63355.56;5020996;28;20101;-78
2023/09/14 00:08:14;;;;;;;15.88;8.93;;;;;;;-141.50;100.00;63355.56;5026031;28;20073;-77
2023/09/14 00:10:41;;;;;;;15.52;9.82;;;;;;;-141.50;100.00;63355.56;5021179;28;20048;-77
2023/09/14 00:13:10;;;;;;;16.92;10.20;;;;;;;-141.50;100.00;63355.56;5022061;28;20073;-77
2023/09/14 00:15:39;;;;;;;13.88;8.27;;;;;;;-141.50;100.00;63355.56;5025907;28;20072;-78
2023/09/14 00:18:08;;;;;;;12.60;8.05;;;;;;;-141.50;100.00;63355.56;5015323;28;20045;-77
2023/09/14 00:20:35;;;;;;;13.50;7.85;;;;;;;-141.50;100.00;63355.56;5027956;28;20507;-77
2023/09/14 00:23:08;;;;;;;12.40;7.45;;;;;;;-141.50;100.00;63355.56;5028137;28;20053;-78
2023/09/14 00:25:35;;;;;;;9.52;5.80;;;;;;;-141.50;100.00;63355.56;5043746;28;20108;-77
2023/09/14 00:28:02;;;;;;;8.88;5.32;;;;;;;-141.50;100.00;63355.56;5028326;28;20049;-77
2023/09/14 00:30:29;;;;;;;10.05;5.57;;;;;;;-141.50;100.00;63355.56;5027992;28;20076;-78
2023/09/14 00:32:56;;;;;;;12.18;6.13;;;;;;;-141.50;100.00;63355.56;5025448;28;20508;-79
2023/09/14 00:35:24;;;;;;;10.13;5.88;;;;;;;-141.50;100.00;63355.56;5010423;28;20053;-78
2023/09/14 00:37:50;;;;;;;8.23;5.13;;;;;;;-141.50;100.00;63355.56;5028818;28;20051;-78
2023/09/14 00:40:17;;;;;;;7.53;4.50;;;;;;;-141.50;100.00;63355.56;5022630;28;20264;-78
2023/09/14 00:42:48;;;;;;;11.10;4.68;;;;;;;-141.50;100.00;63355.56;5027837;28;20068;-78
2023/09/14 00:45:20;;;;;;;9.43;4.28;;;;;;;-141.50;100.00;63355.56;5019443;28;20057;-78
2023/09/14 00:47:47;;;;;;;9.07;3.80;;;;;;;-141.50;100.00;63355.56;5025888;28;20053;-78
2023/09/14 00:50:17;;;;;;;5.57;3.47;;;;;;;-141.50;100.00;63355.56;5026630;28;20519;-78
2023/09/14 00:52:49;;;;;;;5.00;3.10;;;;;;;-141.50;100.00;63355.56;5026366;28;20077;-79
2023/09/14 00:55:17;;;;;;;3.97;2.70;;;;;;;-141.50;100.00;63355.56;5027443;28;20042;-79
2023/09/14 00:57:48;;;;;;;5.03;3.25;;;;;;;-141.50;100.00;63355.56;5025057;28;20052;-79
2023/09/14 01:00:18;;;;;;;4.15;2.92;;;;;;;-141.50;100.00;63355.56;5024721;28;20057;-79
2023/09/14 01:02:47;;;;;;;4.75;3.40;;;;;;;-141.50;100.00;63355.56;5027369;28;20049;-78
2023/09/14 01:05:14;;;;;;;7.35;3.92;;;;;;;-141.50;100.00;63355.56;5044044;28;20514;-79
2023/09/14 01:07:41;;;;;;;5.28;3.58;;;;;;;-141.50;100.00;63355.56;5030515;28;20041;-79
2023/09/14 01:10:18;;;;;;;3.90;3.08;;;;;;;-141.50;100.00;63355.56;5028156;28;20045;-78
2023/09/14 01:12:48;;;;;;;4.95;3.67;;;;;;;-141.50;100.00;63355.56;5027860;28;20064;-79
2023/09/14 01:15:38;;;;;;;5.80;3.75;;;;;;;-141.50;100.00;63355.56;5025129;28;20912;-79
2023/09/14 01:18:41;;;;;;;4.75;3.20;;;;;;;-141.50;100.00;63355.56;5005706;28;20041;-77
2023/09/14 01:21:37;;;;;;;6.95;3.97;;;;;;;-141.50;100.00;63355.56;5027640;28;20433;-78
2023/09/14 01:24:29;;;;;;;9.32;4.18;;;;;;;-141.50;100.00;63355.56;5036836;28;20054;-79
2023/09/14 01:26:57;;;;;;;5.40;4.03;;;;;;;-141.50;100.00;63355.56;5026783;28;20246;-78
2023/09/14 01:29:23;;;;;;;5.57;3.58;;;;;;;-141.50;100.00;63355.56;5027321;28;20042;-78
2023/09/14 01:31:50;;;;;;;7.03;4.53;;;;;;;-141.50;100.00;63355.56;5020279;28;20049;-78
2023/09/14 01:34:17;;;;;;;5.55;4.18;;;;;;;-141.50;100.00;63355.56;5017276;28;20163;-78
2023/09/14 01:36:53;;;;;;;8.80;4.35;;;;;;;-141.50;100.00;63355.56;5010216;28;20602;-78
2023/09/14 01:39:24;;;;;;;7.88;4.55;;;;;;;-141.50;100.00;63355.56;5039845;28;20045;-79
2023/09/14 01:41:54;;;;;;;7.82;4.45;;;;;;;-141.50;100.00;63355.56;5027133;28;20069;-79
2023/09/14 01:44:27;;;;;;;5.72;4.30;;;;;;;-141.50;100.00;63355.56;5024696;28;20037;-78
2023/09/14 01:46:54;;;;;;;7.40;4.93;;;;;;;-141.50;100.00;63355.56;5024343;28;20057;-78
2023/09/14 01:49:22;;;;;;;7.40;5.03;;;;;;;-141.50;100.00;63355.56;5021662;28;20049;-79
2023/09/14 01:51:53;;;;;;;7.63;5.15;;;;;;;-141.50;100.00;63355.56;5028125;28;20042;-78
2023/09/14 01:54:19;;;;;;;7.68;5.10;;;;;;;-141.50;100.00;63355.56;5023017;28;20034;-78
2023/09/14 01:56:46;;;;;;;7.45;5.05;;;;;;;-141.50;100.00;63355.56;5030404;28;20041;-78
2023/09/14 01:59:13;;;;;;;8.25;5.05;;;;;;;-141.50;100.00;63355.56;5023476;28;20384;-78
2023/09/14 02:01:40;;;;;;;7.90;5.15;;;;;;;-141.50;100.00;63355.56;5029287;28;20107;-78
2023/09/14 02:04:07;;;;;;;8.10;5.05;;;;;;;-141.50;100.00;63355.56;5019990;28;20059;-78
2023/09/14 02:06:34;;;;;;;7.88;5.13;;;;;;;-141.50;100.00;63355.56;5027061;28;20450;-78
2023/09/14 02:09:01;;;;;;;8.70;5.32;;;;;;;-141.50;100.00;63355.56;5041111;28;20069;-78
2023/09/14 02:11:28;;;;;;;9.15;5.50;;;;;;;-141.50;100.00;63355.56;5032673;28;20647;-79
2023/09/14 02:13:55;;;;;;;10.30;5.93;;;;;;;-141.50;100.00;63355.56;5025594;28;20048;-79
2023/09/14 02:16:22;;;;;;;8.38;5.93;;;;;;;-141.50;100.00;63355.56;5014703;28;20072;-78
2023/09/14 02:18:49;;;;;;;8.65;5.88;;;;;;;-141.50;100.00;63355.56;5030802;28;20152;-79
2023/09/14 02:21:16;;;;;;;10.68;6.00;;;;;;;-141.50;100.00;63355.56;5028073;28;20050;-79
2023/09/14 02:23:47;;;;;;;10.63;6.65;;;;;;;-141.50;100.00;63355.56;5029364;28;20728;-78
2023/09/14 02:26:14;;;;;;;10.48;6.82;;;;;;;-141.50;100.00;63355.56;5026070;28;20068;-78
2023/09/14 02:28:40;;;;;;;10.18;7.10;;;;;;;-141.50;100.00;63355.56;5019273;28;20042;-78
2023/09/14 02:31:07;;;;;;;13.43;7.18;;;;;;;-141.50;100.00;63355.56;5030597;28;20049;-78
2023/09/14 02:33:36;;;;;;;13.32;7.53;;;;;;;-141.50;100.00;63355.56;5024591;28;20046;-79
2023/09/14 02:36:03;;;;;;;13.82;6.85;;;;;;;-141.50;100.00;63355.56;5031310;28;20056;-78
2023/09/14 02:38:30;;;;;;;9.32;6.05;;;;;;;-141.50;100.00;63355.56;5030392;28;20045;-79
2023/09/14 02:40:57;;;;;;;7.28;4.65;;;;;;;-141.50;100.00;63355.56;5025035;28;20627;-78
2023/09/14 02:43:24;;;;;;;11.70;5.55;;;;;;;-141.50;100.00;63355.56;5029789;28;20040;-78
2023/09/14 02:45:51;;;;;;;7.55;4.55;;;;;;;-141.50;100.00;63355.56;5025597;28;20046;-78
2023/09/14 02:48:18;;;;;;;9.20;4.20;;;;;;;-141.50;100.00;63355.56;5046797;28;21635;-78
2023/09/14 02:50:45;;;;;;;8.20;4.38;;;;;;;-141.50;100.00;63355.56;5024158;28;20121;-78
2023/09/14 02:53:11;;;;;;;7.45;3.90;;;;;;;-141.50;100.00;63355.56;5030823;28;20034;-78
2023/09/14 02:55:39;;;;;;;6.03;3.75;;;;;;;-141.50;100.00;63355.56;5023768;28;20056;-78
2023/09/14 02:58:09;;;;;;;7.72;4.20;;;;;;;-141.50;100.00;63355.56;5031254;28;20073;-78
2023/09/14 03:00:39;;;;;;;8.68;3.97;;;;;;;-141.50;100.00;63355.56;5029777;28;20056;-79
2023/09/14 03:03:09;;;;;;;5.55;3.60;;;;;;;-141.50;100.00;63355.56;5031346;28;20132;-79
2023/09/14 03:05:39;;;;;;;8.50;3.88;;;;;;;-141.50;100.00;63355.56;5029046;28;20052;-78
2023/09/14 03:08:06;;;;;;;6.53;3.75;;;;;;;-141.50;100.00;63355.56;5029392;28;20056;-78
2023/09/14 03:10:33;;;;;;;8.75;4.30;;;;;;;-141.50;100.00;63355.56;5027997;28;20096;-78
2023/09/14 03:13:00;;;;;;;9.15;3.92;;;;;;;-141.50;100.00;63355.56;5029198;28;20091;-80
2023/09/14 03:15:28;;;;;;;6.60;4.15;;;;;;;-141.50;100.00;63355.56;5046885;28;20049;-79
2023/09/14 03:17:55;;;;;;;6.78;4.53;;;;;;;-141.50;100.00;63355.56;5026980;28;20108;-77
2023/09/14 03:20:22;;;;;;;9.48;4.30;;;;;;;-141.50;100.00;63355.56;5023947;28;20045;-80
2023/09/14 03:22:49;;;;;;;7.22;4.20;;;;;;;-141.50;100.00;63355.56;5032244;28;20455;-79
2023/09/14 03:25:16;;;;;;;7.88;4.28;;;;;;;-141.50;100.00;63355.56;5029333;28;20102;-79
2023/09/14 03:27:44;;;;;;;6.45;3.83;;;;;;;-141.50;100.00;63355.56;5030652;28;20041;-79
2023/09/14 03:30:11;;;;;;;6.95;3.63;;;;;;;-141.50;100.00;63355.56;5033384;28;20045;-79
2023/09/14 03:32:38;;;;;;;8.85;3.47;;;;;;;-141.50;100.00;63355.56;5026658;28;20061;-79
2023/09/14 03:35:05;;;;;;;9.40;3.40;;;;;;;-141.50;100.00;63355.56;5042204;28;20076;-79
2023/09/14 03:37:33;;;;;;;6.60;3.28;;;;;;;-141.50;100.00;63355.56;5022771;28;20046;-79
2023/09/14 03:40:00;;;;;;;5.43;2.97;;;;;;;-141.50;100.00;63355.56;5029925;28;20045;-78
2023/09/14 03:42:27;;;;;;;5.85;2.92;;;;;;;-141.50;100.00;63355.56;5025513;28;20068;-80
2023/09/14 03:44:54;;;;;;;7.35;3.03;;;;;;;-141.50;100.00;63355.56;5010601;28;20056;-78
2023/09/14 03:47:21;;;;;;;8.15;3.00;;;;;;;-141.50;100.00;63355.56;5004112;28;20045;-78
2023/09/14 03:49:47;;;;;;;5.95;2.90;;;;;;;-141.50;100.00;63355.56;5025939;28;20557;-80
2023/09/14 03:52:14;;;;;;;9.38;3.10;;;;;;;-141.50;100.00;63355.56;5029213;28;20053;-79
2023/09/14 03:54:41;;;;;;;5.90;3.20;;;;;;;-141.50;100.00;63355.56;5024323;28;20045;-79
2023/09/14 03:57:14;;;;;;;7.68;3.35;;;;;;;-141.50;100.00;63355.56;5025266;28;20411;-79
2023/09/14 03:59:43;;;;;;;7.63;3.45;;;;;;;-141.50;100.00;63355.56;5023956;28;20053;-79
2023/09/14 04:02:10;;;;;;;6.15;3.30;;;;;;;-141.50;100.00;63355.56;5044933;28;20060;-79
2023/09/14 04:04:44;;;;;;;6.05;3.10;;;;;;;-141.50;100.00;63355.56;5028052;28;20415;-79
2023/09/14 04:07:11;;;;;;;5.88;3.33;;;;;;;-141.50;100.00;63355.56;5027877;28;20096;-77
2023/09/14 04:09:41;;;;;;;5.88;3.50;;;;;;;-141.50;100.00;63355.56;5025685;28;20047;-80
2023/09/14 04:12:08;;;;;;;6.70;3.40;;;;;;;-141.50;100.00;63355.56;5010864;28;20245;-80
2023/09/14 04:14:35;;;;;;;6.88;3.10;;;;;;;-141.50;100.00;63355.56;5048761;28;20065;-80
2023/09/14 04:17:03;;;;;;;7.75;2.60;;;;;;;-141.50;100.00;63355.56;5041487;28;20053;-80
2023/09/14 04:19:30;;;;;;;9.75;3.00;;;;;;;-141.50;100.00;63355.56;5048405;28;20041;-78
2023/09/14 04:21:58;;;;;;;5.00;2.80;;;;;;;-141.50;100.00;63355.56;5042140;28;20064;-78
2023/09/14 04:24:27;;;;;;;7.72;2.70;;;;;;;-141.50;100.00;63355.56;5045871;28;20299;-79
2023/09/14 04:26:54;;;;;;;4.90;2.97;;;;;;;-141.50;100.00;63355.56;5047172;28;20033;-80
2023/09/14 04:29:20;;;;;;;6.05;2.97;;;;;;;-141.50;100.00;63355.56;5026790;28;20049;-80
2023/09/14 04:31:47;;;;;;;9.15;3.00;;;;;;;-141.50;100.00;63355.56;5046792;28;20045;-81
2023/09/14 04:34:14;;;;;;;6.38;3.05;;;;;;;-141.50;100.00;63355.56;5026181;28;20054;-79
2023/09/14 04:36:41;;;;;;;7.88;2.88;;;;;;;-141.50;100.00;63355.56;5030346;28;20046;-79
2023/09/14 04:39:09;;;;;;;8.18;3.17;;;;;;;-141.50;100.00;63355.56;5014305;28;20049;-79
2023/09/14 04:41:36;;;;;;;5.22;3.30;;;;;;;-141.50;100.00;63355.56;5047567;28;20041;-79
2023/09/14 04:44:03;;;;;;;5.38;2.97;;;;;;;-141.50;100.00;63355.56;5020505;28;20650;-79
2023/09/14 04:46:30;;;;;;;7.47;3.35;;;;;;;-141.50;100.00;63355.56;5018930;28;20057;-79
2023/09/14 04:48:57;;;;;;;10.50;3.72;;;;;;;-141.50;100.00;63355.56;5014426;28;20822;-76
2023/09/14 04:51:24;;;;;;;13.48;3.97;;;;;;;-141.50;100.00;63355.56;5030103;28;20672;-79
2023/09/14 04:53:51;;;;;;;13.68;5.57;;;;;;;-141.50;100.00;63355.56;5023685;28;20421;-77
2023/09/14 04:56:19;;;;;;;11.38;5.57;;;;;;;-141.50;100.00;63355.56;4998662;28;20058;-78
2023/09/14 04:58:46;;;;;;;10.75;4.88;;;;;;;-141.50;100.00;63355.56;5018980;28;20041;-77
2023/09/14 05:01:13;;;;;;;13.73;5.57;;;;;;;-141.50;100.00;63355.56;5021060;28;20052;-78
2023/09/14 05:03:40;;;;;;;13.85;6.18;;;;;;;-141.50;100.00;63355.56;5001475;28;20045;-78
2023/09/14 05:06:08;;;;;;;15.73;6.13;;;;;;;-141.50;100.00;63355.56;5020770;28;20045;-77
2023/09/14 05:08:35;;;;;;;13.18;5.32;;;;;;;-141.50;100.00;63355.56;5017865;28;20050;-77
2023/09/14 05:11:03;;;;;;;10.15;5.75;;;;;;;-141.50;100.00;63355.56;5023410;28;20050;-77
2023/09/14 05:13:30;;;;;;;10.77;5.22;;;;;;;-141.50;100.00;63355.56;5016842;28;20046;-79
2023/09/14 05:15:57;;;;;;;11.98;5.47;;;;;;;-141.50;100.00;63355.56;5010675;28;20469;-79
2023/09/14 05:18:26;;;;;;;11.32;5.65;;;;;;;-141.50;100.00;63355.56;5008331;28;20053;-77
2023/09/14 05:20:53;;;;;;;12.05;6.40;;;;;;;-141.50;100.00;63355.56;5023107;28;20124;-80
2023/09/14 05:23:20;;;;;;;11.73;5.93;;;;;;;-141.50;100.00;63355.56;5022188;28;20048;-79
2023/09/14 05:25:47;;;;;;;12.77;5.70;;;;;;;-141.50;100.00;63355.56;5026626;28;20056;-80
2023/09/14 05:28:14;;;;;;;12.00;5.50;;;;;;;-141.50;100.00;63355.56;5023113;28;20050;-79
2023/09/14 05:30:43;;;;;;;9.55;5.45;;;;;;;-141.50;100.00;63355.56;5024298;28;20045;-79
2023/09/14 05:33:10;;;;;;;11.85;5.75;;;;;;;-141.50;100.00;63355.56;5025348;28;20041;-78
2023/09/14 05:35:37;;;;;;;12.88;5.75;;;;;;;-141.50;100.00;63355.56;5009203;28;20562;-79
2023/09/14 05:38:05;;;;;;;10.57;5.88;;;;;;;-141.50;100.00;63355.56;5020540;28;20392;-79
2023/09/14 05:40:32;;;;;;;10.75;5.80;;;;;;;-141.50;100.00;63355.56;5019842;28;20046;-80
2023/09/14 05:42:59;;;;;;;12.65;6.13;;;;;;;-141.50;100.00;63355.56;5023675;28;20535;-80
2023/09/14 05:45:27;;;;;;;11.73;5.00;;;;;;;-141.50;100.00;63355.56;5016499;28;20123;-79
2023/09/14 05:47:55;;;;;;;13.48;5.95;;;;;;;-141.50;100.00;63355.56;5040207;28;20091;-79
2023/09/14 05:50:22;;;;;;;12.05;5.90;;;;;;;-141.50;100.00;63355.56;5009111;28;20041;-80
2023/09/14 05:52:50;;;;;;;9.30;5.50;;;;;;;-141.50;100.00;63355.56;5019133;28;20049;-80
2023/09/14 05:55:17;;;;;;;11.82;6.07;;;;;;;-141.50;100.00;63355.56;5022506;28;20077;-79
2023/09/14 05:57:45;;;;;;;16.17;6.00;;;;;;;-141.50;100.00;63355.56;5024224;28;20044;-79
2023/09/14 06:00:20;;;;;;;17.15;5.95;;;;;;;-141.50;100.00;63355.56;5024979;28;20103;-79
2023/09/14 06:02:52;;;;;;;11.00;5.75;;;;;;;-141.50;100.00;63355.56;5007011;28;20046;-80
2023/09/14 06:05:19;;;;;;;16.45;6.32;;;;;;;-141.50;100.00;63355.56;5004778;28;20041;-79
2023/09/14 06:07:53;;;;;;;12.15;5.60;;;;;;;-141.50;100.00;63355.56;5019614;28;20116;-78
2023/09/14 06:10:21;;;;;;;13.38;7.00;;;;;;;-141.50;100.00;63355.56;5009704;28;20549;-79
2023/09/14 06:12:49;;;;;;;13.55;6.50;;;;;;;-141.50;100.00;63355.56;5017561;28;20053;-78
2023/09/14 06:15:16;;;;;;;17.52;7.25;;;;;;;-141.50;100.00;63355.56;5025703;28;20045;-80
2023/09/14 06:17:43;;;;;;;14.10;7.03;;;;;;;-141.50;100.00;63355.56;5019786;28;20042;-77
2023/09/14 06:20:10;;;;;;;14.15;7.63;;;;;;;-141.50;100.00;63355.56;5026868;28;20053;-79
2023/09/14 06:22:37;;;;;;;12.95;6.50;;;;;;;-141.50;100.00;63355.56;5026438;28;20044;-79
2023/09/14 06:25:04;;;;;;;13.38;6.30;;;;;;;-141.50;100.00;63355.56;5028936;28;20056;-79
2023/09/14 06:27:31;;;;;;;16.83;7.10;;;;;;;-141.50;100.00;63355.56;5022763;28;20096;-79
2023/09/14 06:29:58;;;;;;;12.60;6.80;;;;;;;-141.50;100.00;63355.56;5024366;28;20126;-80
2023/09/14 06:32:25;;;;;;;15.23;8.20;;;;;;;-141.50;100.00;63355.56;5020910;28;20048;-79
2023/09/14 06:34:51;;;;;;;13.15;6.65;;;;;;;-141.50;100.00;63355.56;5018370;28;20136;-79
2023/09/14 06:37:20;;;;;;;16.48;9.20;;;;;;;-141.50;100.00;63355.56;5021514;28;20440;-79
2023/09/14 06:39:47;;;;;;;16.42;8.40;;;;;;;-141.50;100.00;63355.56;5018044;28;20418;-79
2023/09/14 06:42:14;;;;;;;14.48;8.57;;;;;;;-141.50;100.00;63355.56;5026795;28;20049;-79
2023/09/14 06:44:40;;;;;;;18.48;9.48;;;;;;;-141.50;100.00;63355.56;5017766;28;20530;-79
2023/09/14 06:47:07;;;;;;;18.92;9.82;;;;;;;-141.50;100.00;63355.56;5025121;28;20084;-78
2023/09/14 06:49:34;;;;;;;20.48;10.50;;;;;;;-141.50;100.00;63355.56;5019246;28;20042;-78
2023/09/14 06:52:01;;;;;;;17.73;9.02;;;;;;;-141.50;100.00;63355.56;5023418;28;20049;-78
2023/09/14 06:54:28;;;;;;;18.15;8.68;;;;;;;-141.50;100.00;63355.56;5022826;28;20037;-78
2023/09/14 06:56:54;;;;;;;16.67;8.20;;;;;;;-141.50;100.00;63355.56;5029207;28;20280;-78
2023/09/14 06:59:21;;;;;;;17.42;7.93;;;;;;;-141.50;100.00;63355.56;5028976;28;20323;-79
2023/09/14 07:01:48;;;;;;;21.58;8.35;;;;;;;-141.50;100.00;63355.56;5007651;28;20046;-78
2023/09/14 07:04:17;;;;;;;17.67;8.95;;;;;;;-141.50;100.00;63355.56;5024391;28;20060;-78
2023/09/14 07:06:45;;;;;;;16.35;8.13;;;;;;;-141.50;100.00;63355.56;5029292;28;20854;-78
2023/09/14 07:09:12;;;;;;;16.50;8.10;;;;;;;-141.50;100.00;63355.56;5045711;28;20041;-78
2023/09/14 07:11:39;;;;;;;18.75;9.10;;;;;;;-141.50;100.00;63355.56;5026596;28;20056;-77
2023/09/14 07:14:06;;;;;;;20.30;11.07;;;;;;;-141.50;100.00;63355.56;5028130;28;20145;-78
2023/09/14 07:16:32;;;;;;;22.27;9.82;;;;;;;-141.50;100.00;63355.56;5028645;28;20079;-78
2023/09/14 07:19:00;;;;;;;17.33;9.25;;;;;;;-141.50;100.00;63355.56;5020466;28;20050;-78
2023/09/14 07:21:27;;;;;;;16.10;8.50;;;;;;;-141.50;100.00;63355.56;5031511;28;20535;-78
2023/09/14 07:23:54;;;;;;;14.55;8.65;;;;;;;-141.50;100.00;63355.56;5030047;28;20128;-79
2023/09/14 07:26:20;;;;;;;13.40;7.53;;;;;;;-141.50;100.00;63355.56;5030262;28;20048;-78
2023/09/14 07:28:47;;;;;;;17.88;7.38;;;;;;;-141.50;100.00;63355.56;5010694;28;20076;-78
2023/09/14 07:31:14;;;;;;;14.60;7.47;;;;;;;-141.50;100.00;63355.56;5028223;28;20052;-79
2023/09/14 07:33:44;;;;;;;18.23;7.90;;;;;;;-141.50;100.00;63355.56;5029633;28;20077;-78
2023/09/14 07:36:11;;;;;;;16.55;8.93;;;;;;;-141.50;100.00;63355.56;5020624;28;20049;-78
2023/09/14 07:38:38;;;;;;;13.77;9.02;;;;;;;-141.50;100.00;63355.56;5026418;28;20126;-78
2023/09/14 07:41:05;;;;;;;14.45;7.53;;;;;;;-141.50;100.00;63355.56;5024495;28;20129;-78
2023/09/14 07:43:32;;;;;;;13.60;7.03;;;;;;;-141.50;100.00;63355.56;5024416;28;20119;-78
2023/09/14 07:45:58;;;;;;;14.43;7.50;;;;;;;-141.50;100.00;63355.56;5028228;28;20045;-78
2023/09/14 07:48:26;;;;;;;14.00;7.70;;;;;;;-141.50;100.00;63355.56;5027936;28;20045;-78
2023/09/14 07:50:52;;;;;;;13.27;7.50;;;;;;;-141.50;100.00;63355.56;5027549;28;20045;-78
2023/09/14 07:53:19;;;;;;;13.27;7.28;;;;;;;-141.50;100.00;63355.56;5028742;28;20045;-79
2023/09/14 07:55:52;;;;;;;14.63;6.90;;;;;;;-141.50;100.00;63355.56;5027210;28;20038;-78
2023/09/14 07:58:20;;;;;;;14.50;8.30;;;;;;;-141.50;100.00;63355.56;5027724;28;20824;-79
2023/09/14 08:00:48;;;;;;;12.77;7.72;;;;;;;-141.50;100.00;63355.56;5018904;28;20042;-79
2023/09/14 08:03:15;;;;;;;12.63;8.45;;;;;;;-141.50;100.00;63355.56;5019718;28;20037;-79
2023/09/14 08:05:42;;;;;;;13.32;8.40;;;;;;;-141.50;100.00;63355.56;5026405;28;20044;-77
2023/09/14 08:08:10;;;;;;;16.52;8.85;;;;;;;-141.50;100.00;63355.56;5036612;28;20075;-79
2023/09/14 08:10:37;;;;;;;14.98;8.15;;;;;;;-141.50;100.00;63355.56;5021737;28;20045;-79
2023/09/14 08:13:03;;;;;;;12.63;6.40;;;;;;;-141.50;100.00;63355.56;5020602;28;20077;-78
2023/09/14 08:15:30;;;;;;;11.52;6.38;;;;;;;-141.50;100.00;63355.56;5028042;28;20045;-79
2023/09/14 08:17:57;;;;;;;8.73;5.55;;;;;;;-141.50;100.00;63355.56;5026094;28;20053;-79
2023/09/14 08:20:24;;;;;;;8.02;4.70;;;;;;;-141.50;100.00;63355.56;5015337;28;20049;-78
2023/09/14 08:22:51;;;;;;;8.65;5.78;;;;;;;-141.50;100.00;63355.56;5025931;28;20515;-79
2023/09/14 08:25:17;;;;;;;10.63;5.88;;;;;;;-141.50;100.00;63355.56;5028661;28;20041;-78
2023/09/14 08:27:44;;;;;;;10.88;6.32;;;;;;;-141.50;100.00;63355.56;5046138;28;20045;-78
2023/09/14 08:30:11;;;;;;;14.82;6.45;;;;;;;-141.50;100.00;63355.56;5031219;28;20077;-78
2023/09/14 08:32:38;;;;;;;11.05;6.22;;;;;;;-141.50;100.00;63355.56;5021500;28;20114;-79
2023/09/14 08:35:33;;;;;;;12.23;5.93;;;;;;;-141.50;100.00;63355.56;5026532;28;20050;-79
2023/09/14 08:38:03;;;;;;;12.98;6.18;;;;;;;-141.50;100.00;63355.56;5027406;28;20404;-78
2023/09/14 08:40:30;;;;;;;11.55;7.32;;;;;;;-141.50;100.00;63355.56;5030265;28;20050;-78
2023/09/14 08:42:59;;;;;;;10.93;7.03;;;;;;;-141.50;100.00;63355.56;5026759;28;20224;-79
2023/09/14 08:45:31;;;;;;;11.35;6.93;;;;;;;-141.50;100.00;63355.56;5043587;28;20431;-79
2023/09/14 08:48:01;;;;;;;14.30;6.45;;;;;;;-141.50;100.00;63355.56;5024522;28;20245;-79
2023/09/14 08:50:30;;;;;;;11.55;6.68;;;;;;;-141.50;100.00;63355.56;5027089;28;20153;-79
2023/09/14 08:52:58;;;;;;;11.63;5.75;;;;;;;-141.50;100.00;63355.56;5026956;28;20687;-79
2023/09/14 08:55:31;;;;;;;14.23;6.05;;;;;;;-141.50;100.00;63355.56;5015002;28;20120;-79
2023/09/14 08:57:59;;;;;;;10.05;5.20;;;;;;;-141.50;100.00;63355.56;5026659;28;20327;-79
2023/09/14 09:00:28;;;;;;;8.55;5.05;;;;;;;-141.50;100.00;63355.56;5027675;28;20331;-79
2023/09/14 09:02:56;;;;;;;11.48;4.22;;;;;;;-141.50;100.00;63355.56;5042193;28;20048;-79
2023/09/14 09:05:24;;;;;;;10.90;5.20;;;;;;;-141.50;100.00;63355.56;5026852;28;20052;-78
2023/09/14 09:07:54;;;;;;;7.95;4.80;;;;;;;-141.50;100.00;63355.56;5019098;28;20057;-79
2023/09/14 09:10:22;;;;;;;8.63;4.80;;;;;;;-141.50;100.00;63355.56;5027372;28;20045;-79
2023/09/14 09:13:03;;;;;;;8.82;4.38;;;;;;;-141.50;100.00;63355.56;5035140;28;20060;-78
2023/09/14 09:15:33;;;;;;;6.82;3.95;;;;;;;-141.50;100.00;63355.56;5034736;28;20732;-78
2023/09/14 09:18:11;;;;;;;8.38;4.35;;;;;;;-141.50;100.00;63355.56;5043421;28;20037;-78
2023/09/14 09:20:45;;;;;;;11.15;4.03;;;;;;;-141.50;100.00;63355.56;5039073;28;20041;-78
2023/09/14 09:23:15;;;;;;;8.13;3.95;;;;;;;-141.50;100.00;63355.56;5037634;28;20048;-78
2023/09/14 09:25:43;;;;;;;4.80;3.15;;;;;;;-141.50;100.00;63355.56;5041952;28;20033;-78
2023/09/14 09:28:10;;;;;;;8.88;4.22;;;;;;;-141.50;100.00;63355.56;5042413;28;20121;-78
2023/09/14 09:30:37;;;;;;;9.65;3.22;;;;;;;-141.50;100.00;63355.56;5034385;28;20297;-78
2023/09/14 09:33:04;;;;;;;6.68;3.42;;;;;;;-141.50;100.00;63355.56;5034487;28;20065;-77
2023/09/14 09:35:36;;;;;;;6.38;2.80;;;;;;;-141.50;100.00;63355.56;5029354;28;20045;-78
2023/09/14 09:38:14;;;;;;;7.80;3.00;;;;;;;-141.50;100.00;63355.56;5022420;28;20463;-78
2023/09/14 09:40:44;;;;;;;5.35;2.60;;;;;;;-141.50;100.00;63355.56;5026921;28;20284;-79
2023/09/14 09:43:15;;;;;;;7.68;2.80;;;;;;;-141.50;100.00;63355.56;5008286;28;20073;-78
2023/09/14 09:45:43;;;;;;;8.25;2.72;;;;;;;-141.50;100.00;63355.56;5025696;28;20048;-79
2023/09/14 09:48:10;;;;;;;5.53;2.60;;;;;;;-141.50;100.00;63355.56;5031634;28;20088;-78
2023/09/14 09:50:38;;;;;;;4.78;3.13;;;;;;;-141.50;100.00;63355.56;5023221;28;20068;-79
2023/09/14 09:53:10;;;;;;;9.85;2.72;;;;;;;-141.50;100.00;63355.56;5024400;28;20045;-78
2023/09/14 09:55:37;;;;;;;6.93;3.13;;;;;;;-141.50;100.00;63355.56;5025634;28;20527;-78
2023/09/14 09:58:06;;;;;;;6.07;3.00;;;;;;;-141.50;100.00;63355.56;5026418;28;20056;-78
2023/09/14 10:00:36;;;;;;;8.32;3.35;;;;;;;-141.50;100.00;63355.56;5017747;28;20384;-78
2023/09/14 10:03:03;;;;;;;6.57;2.88;;;;;;;-141.50;100.00;63355.56;5021808;28;20758;-78
2023/09/14 10:05:40;;;;;;;9.43;3.50;;;;;;;-141.50;100.00;63355.56;5015971;28;20045;-78
2023/09/14 10:08:15;;;;;;;3.75;2.78;;;;;;;-141.50;100.00;63355.56;5031774;28;20404;-78
2023/09/14 10:10:51;;;;;;;7.00;2.28;;;;;;;-141.50;100.00;63355.56;5024009;28;20092;-78
2023/09/14 10:13:23;;;;;;;9.18;2.90;;;;;;;-141.50;100.00;63355.56;5021976;28;20578;-78
2023/09/14 10:15:54;;;;;;;6.15;2.15;;;;;;;-141.50;100.00;63355.56;5018646;28;20574;-78
2023/09/14 10:18:23;;;;;;;7.78;2.80;;;;;;;-141.50;100.00;63355.56;5026311;28;20045;-78
2023/09/14 10:20:51;;;;;;;5.22;2.40;;;;;;;-141.50;100.00;63355.56;5025425;28;20041;-77
2023/09/14 10:23:22;;;;;;;4.40;2.28;;;;;;;-141.50;100.00;63355.56;5026747;28;20091;-77
2023/09/14 10:25:51;;;;;;;4.50;2.15;;;;;;;-141.50;100.00;63355.56;5026392;28;20495;-77
2023/09/14 10:28:22;;;;;;;7.75;2.22;;;;;;;-141.50;100.00;63355.56;5028924;28;20053;-78
2023/09/14 10:30:52;;;;;;;4.07;2.08;;;;;;;-141.50;100.00;63355.56;5028827;28;20284;-77
2023/09/14 10:33:21;;;;;;;3.58;1.73;;;;;;;-141.50;100.00;63355.56;5031039;28;20041;-78
2023/09/14 10:35:50;;;;;;;6.38;1.60;;;;;;;-141.50;100.00;63355.56;5023541;28;20075;-78
2023/09/14 10:38:22;;;;;;;3.42;1.50;;;;;;;-141.50;100.00;63355.56;5020724;28;20042;-78
2023/09/14 10:40:52;;;;;;;7.45;1.90;;;;;;;-141.50;100.00;63355.56;5027391;28;20531;-78
2023/09/14 10:43:19;;;;;;;3.72;1.58;;;;;;;-141.50;100.00;63355.56;5029069;28;20065;-78
2023/09/14 10:45:48;;;;;;;3.67;1.92;;;;;;;-141.50;100.00;63355.56;5020611;28;20435;-78
2023/09/14 10:48:19;;;;;;;5.47;1.67;;;;;;;-141.50;100.00;63355.56;5023805;28;20053;-78
2023/09/14 10:50:49;;;;;;;5.90;1.42;;;;;;;-141.50;100.00;63355.56;5026873;28;20044;-78
2023/09/14 10:53:16;;;;;;;6.53;1.90;;;;;;;-141.50;100.00;63355.56;5029461;28;20041;-78
2023/09/14 10:55:43;;;;;;;4.20;1.50;;;;;;;-141.50;100.00;63355.56;5030478;28;20045;-78
2023/09/14 10:58:16;;;;;;;4.10;1.42;;;;;;;-141.50;100.00;63355.56;5022615;28;20054;-78
2023/09/14 11:00:43;;;;;;;3.53;1.80;;;;;;;-141.50;100.00;63355.56;5042508;28;21700;-77
2023/09/14 11:03:22;;;;;;;7.00;1.33;;;;;;;-141.50;100.00;63355.56;5017766;28;20263;-78
2023/09/14 11:05:52;;;;;;;6.07;1.77;;;;;;;-141.50;100.00;63355.56;5026972;28;20425;-78
2023/09/14 11:08:27;;;;;;;2.42;1.13;;;;;;;-141.50;100.00;63355.56;5022888;28;20045;-78
2023/09/14 11:10:59;;;;;;;6.20;1.80;;;;;;;-141.50;100.00;63355.56;5029142;28;20050;-78
2023/09/14 11:13:33;;;;;;;3.92;1.52;;;;;;;-141.50;100.00;63355.56;5029633;28;20045;-78